createdAt,value
2022-12-08T00:01:16.850Z,20.12
2022-12-08T00:03:44.434Z,20.11
2022-12-08T00:06:48.936Z,20.10
2022-12-08T00:09:22.194Z,20.08
2022-12-08T00:11:50.213Z,20.08
2022-12-08T00:14:17.241Z,20.07
2022-12-08T00:16:44.566Z,20.07
2022-12-08T00:19:11.674Z,20.06
2022-12-08T00:21:38.696Z,20.06
2022-12-08T00:24:06.057Z,20.05
2022-12-08T00:26:33.101Z,20.04
2022-12-08T00:29:01.258Z,20.03
2022-12-08T00:31:28.471Z,20.03
2022-12-08T00:33:55.527Z,20.03
2022-12-08T00:36:22.620Z,20.03
2022-12-08T00:38:49.668Z,20.01
2022-12-08T00:41:45.085Z,20.00
2022-12-08T00:44:16.122Z,20.00
2022-12-08T00:46:43.445Z,20.00
2022-12-08T00:49:10.578Z,20.00
2022-12-08T00:51:38.110Z,20.02
2022-12-08T00:54:05.916Z,20.03
2022-12-08T00:56:33.234Z,20.06
2022-12-08T00:59:00.998Z,20.07
2022-12-08T01:01:28.376Z,20.09
2022-12-08T01:03:55.571Z,20.11
2022-12-08T01:06:22.690Z,20.12
2022-12-08T01:08:49.642Z,20.14
2022-12-08T01:11:19.941Z,20.15
2022-12-08T01:13:47.384Z,20.16
2022-12-08T01:16:27.071Z,20.17
2022-12-08T01:18:54.460Z,20.18
2022-12-08T01:21:22.228Z,20.19
2022-12-08T01:23:49.238Z,20.19
2022-12-08T01:26:18.541Z,20.19
2022-12-08T01:28:46.534Z,20.20
2022-12-08T01:31:17.661Z,20.19
2022-12-08T01:33:45.141Z,20.19
2022-12-08T01:36:23.816Z,20.18
2022-12-08T01:38:51.417Z,20.17
2022-12-08T01:41:21.538Z,20.17
2022-12-08T01:44:02.207Z,20.16
2022-12-08T01:46:31.592Z,20.16
2022-12-08T01:49:09.407Z,20.15
2022-12-08T01:51:42.814Z,20.15
2022-12-08T01:54:11.803Z,20.15
2022-12-08T01:56:54.206Z,20.15
2022-12-08T01:59:22.594Z,20.14
2022-12-08T02:01:51.900Z,20.13
2022-12-08T02:04:19.147Z,20.12
2022-12-08T02:06:49.157Z,20.11
2022-12-08T02:09:16.926Z,20.10
2022-12-08T02:11:43.860Z,20.10
2022-12-08T02:14:12.958Z,20.08
2022-12-08T02:16:40.970Z,20.06
2022-12-08T02:19:36.955Z,20.07
2022-12-08T02:22:18.243Z,20.05
2022-12-08T02:24:58.241Z,20.05
2022-12-08T02:27:35.783Z,20.04
2022-12-08T02:30:13.996Z,20.04
2022-12-08T02:32:55.787Z,20.02
2022-12-08T02:35:36.963Z,20.01
2022-12-08T02:38:15.896Z,20.00
2022-12-08T02:40:49.974Z,20.00
2022-12-08T02:43:50.850Z,20.01
2022-12-08T02:46:31.540Z,20.01
2022-12-08T02:49:00.440Z,20.00
2022-12-08T02:51:27.463Z,20.02
2022-12-08T02:53:55.260Z,20.03
2022-12-08T02:56:39.583Z,20.05
2022-12-08T02:59:36.100Z,20.07
2022-12-08T03:02:30.085Z,20.09
2022-12-08T03:05:26.840Z,20.10
2022-12-08T03:08:00.918Z,20.11
2022-12-08T03:10:41.025Z,20.13
2022-12-08T03:13:23.675Z,20.15
2022-12-08T03:15:53.011Z,20.15
2022-12-08T03:18:24.989Z,20.16
2022-12-08T03:20:52.467Z,20.17
2022-12-08T03:23:22.223Z,20.18
2022-12-08T03:25:58.308Z,20.18
2022-12-08T03:28:25.978Z,20.19
2022-12-08T03:30:58.317Z,20.18
2022-12-08T03:33:30.652Z,20.18
2022-12-08T03:36:00.021Z,20.17
2022-12-08T03:38:27.060Z,20.16
2022-12-08T03:41:12.948Z,20.15
2022-12-08T03:43:39.999Z,20.13
2022-12-08T03:46:06.997Z,20.12
2022-12-08T03:48:33.966Z,20.10
2022-12-08T03:51:00.945Z,20.08
2022-12-08T03:53:27.880Z,20.07
2022-12-08T03:55:55.031Z,20.04
2022-12-08T03:58:21.988Z,20.03
2022-12-08T04:00:49.023Z,20.01
2022-12-08T04:03:16.170Z,20.00
2022-12-08T04:05:43.528Z,19.98
2022-12-08T04:08:10.561Z,19.98
2022-12-08T04:10:37.698Z,19.98
2022-12-08T04:13:04.593Z,19.98
2022-12-08T04:15:31.620Z,19.96
2022-12-08T04:17:58.674Z,19.96
2022-12-08T04:20:25.576Z,19.95
2022-12-08T04:22:52.564Z,19.95
2022-12-08T04:25:19.811Z,19.94
2022-12-08T04:27:46.802Z,19.93
2022-12-08T04:30:14.013Z,19.93
2022-12-08T04:32:45.886Z,19.93
2022-12-08T04:35:14.495Z,19.93
2022-12-08T04:37:41.983Z,19.94
2022-12-08T04:40:09.333Z,19.96
2022-12-08T04:42:36.791Z,19.98
2022-12-08T04:45:04.706Z,20.01
2022-12-08T04:47:31.639Z,20.02
2022-12-08T04:49:58.595Z,20.04
2022-12-08T04:52:25.581Z,20.06
2022-12-08T04:54:52.589Z,20.07
2022-12-08T04:57:19.806Z,20.09
2022-12-08T04:59:46.882Z,20.11
2022-12-08T05:02:14.057Z,20.12
2022-12-08T05:04:41.179Z,20.13
2022-12-08T05:07:08.228Z,20.15
2022-12-08T05:09:35.252Z,20.16
2022-12-08T05:12:02.332Z,20.14
2022-12-08T05:14:29.268Z,20.13
2022-12-08T05:16:56.334Z,20.11
2022-12-08T05:19:23.574Z,20.09
2022-12-08T05:21:50.514Z,20.08
2022-12-08T05:24:17.568Z,20.06
2022-12-08T05:26:44.612Z,20.04
2022-12-08T05:29:11.656Z,20.02
2022-12-08T05:31:38.769Z,20.00
2022-12-08T05:34:05.972Z,19.99
2022-12-08T05:36:33.210Z,19.99
2022-12-08T05:39:00.441Z,19.98
2022-12-08T05:41:27.420Z,19.97
2022-12-08T05:43:54.458Z,19.97
2022-12-08T05:46:21.560Z,19.97
2022-12-08T05:48:48.659Z,19.96
2022-12-08T05:51:21.537Z,19.96
2022-12-08T05:53:50.029Z,19.95
2022-12-08T05:56:18.222Z,19.94
2022-12-08T05:58:45.766Z,19.94
2022-12-08T06:01:27.856Z,19.93
2022-12-08T06:03:55.755Z,19.92
2022-12-08T06:06:22.694Z,19.93
2022-12-08T06:08:49.923Z,19.94
2022-12-08T06:11:21.785Z,19.96
2022-12-08T06:13:49.670Z,19.98
2022-12-08T06:16:17.725Z,19.99
2022-12-08T06:18:45.625Z,20.00
2022-12-08T06:21:14.583Z,20.00
2022-12-08T06:23:42.440Z,20.00
2022-12-08T06:26:12.155Z,19.99
2022-12-08T06:28:40.225Z,19.99
2022-12-08T06:31:22.003Z,19.99
2022-12-08T06:33:49.783Z,19.99
2022-12-08T06:36:19.688Z,19.98
2022-12-08T06:38:46.947Z,19.98
2022-12-08T06:41:15.917Z,19.97
2022-12-08T06:43:43.825Z,19.96
2022-12-08T06:46:15.012Z,19.95
2022-12-08T06:48:42.522Z,19.94
2022-12-08T06:51:11.609Z,19.94
2022-12-08T06:53:39.450Z,19.95
2022-12-08T06:56:07.210Z,19.96
2022-12-08T06:58:35.661Z,19.98
2022-12-08T07:01:13.453Z,20.00
2022-12-08T07:03:41.996Z,20.02
2022-12-08T07:06:14.171Z,20.05
2022-12-08T07:08:41.142Z,20.06
2022-12-08T07:11:16.552Z,20.07
2022-12-08T07:13:46.732Z,20.10
2022-12-08T07:16:13.970Z,20.11
2022-12-08T07:18:42.728Z,20.12
2022-12-08T07:21:11.738Z,20.12
2022-12-08T07:23:38.915Z,20.13
2022-12-08T07:26:08.516Z,20.13
2022-12-08T07:28:38.056Z,20.14
2022-12-08T07:31:06.943Z,20.15
2022-12-08T07:33:35.258Z,20.15
2022-12-08T07:36:05.398Z,20.15
2022-12-08T07:38:32.587Z,20.15
2022-12-08T07:40:59.876Z,20.14
2022-12-08T07:43:27.236Z,20.14
2022-12-08T07:45:54.353Z,20.13
2022-12-08T07:48:21.387Z,20.13
2022-12-08T07:50:48.487Z,20.13
2022-12-08T07:53:15.627Z,20.13
2022-12-08T07:55:43.800Z,20.12
2022-12-08T07:58:11.626Z,20.12
2022-12-08T08:00:39.002Z,20.11
2022-12-08T08:03:06.532Z,20.10
2022-12-08T08:05:33.530Z,20.10
2022-12-08T08:08:00.628Z,20.11
2022-12-08T08:10:27.816Z,20.13
2022-12-08T08:12:55.086Z,20.13
2022-12-08T08:15:22.310Z,20.12
2022-12-08T08:17:53.681Z,20.12
2022-12-08T08:20:21.451Z,20.11
2022-12-08T08:22:49.903Z,20.10
2022-12-08T08:25:18.206Z,20.10
2022-12-08T08:27:45.971Z,20.09
2022-12-08T08:30:20.097Z,20.08
2022-12-08T08:32:48.273Z,20.08
2022-12-08T08:35:15.495Z,20.09
2022-12-08T08:37:48.364Z,20.10
2022-12-08T08:40:16.723Z,20.11
2022-12-08T08:42:43.723Z,20.11
2022-12-08T08:45:11.488Z,20.11
2022-12-08T08:47:38.470Z,20.11
2022-12-08T08:50:06.330Z,20.11
2022-12-08T08:52:33.508Z,20.13
2022-12-08T08:55:00.515Z,20.14
2022-12-08T08:57:27.593Z,20.16
2022-12-08T08:59:54.687Z,20.17
2022-12-08T09:02:22.013Z,20.19
2022-12-08T09:04:49.250Z,20.21
2022-12-08T09:07:17.023Z,20.21
2022-12-08T09:09:44.092Z,20.24
2022-12-08T09:12:11.549Z,20.25
2022-12-08T09:14:38.850Z,20.25
2022-12-08T09:17:11.561Z,20.27
2022-12-08T09:19:38.555Z,20.28
2022-12-08T09:22:06.240Z,20.30
2022-12-08T09:24:33.185Z,20.31
2022-12-08T09:27:00.394Z,20.32
2022-12-08T09:29:32.555Z,20.33
2022-12-08T09:32:02.555Z,20.33
2022-12-08T09:34:29.747Z,20.32
2022-12-08T09:36:56.797Z,20.31
2022-12-08T09:39:23.981Z,20.30
2022-12-08T09:41:58.784Z,20.28
2022-12-08T09:44:54.935Z,20.26
2022-12-08T09:47:33.729Z,20.24
2022-12-08T09:50:14.363Z,20.23
2022-12-08T09:52:45.813Z,20.22
2022-12-08T09:55:21.294Z,20.22
2022-12-08T09:57:58.072Z,20.21
2022-12-08T10:00:25.357Z,20.21
2022-12-08T10:02:52.583Z,20.21
2022-12-08T10:05:19.849Z,20.22
2022-12-08T10:08:08.573Z,20.22
2022-12-08T10:10:43.195Z,20.22
2022-12-08T10:13:33.488Z,20.20
2022-12-08T10:16:29.540Z,20.20
2022-12-08T10:19:22.022Z,20.19
2022-12-08T10:21:50.422Z,20.18
2022-12-08T10:24:32.857Z,20.17
2022-12-08T10:27:01.648Z,20.17
2022-12-08T10:29:29.542Z,20.16
2022-12-08T10:31:59.918Z,20.15
2022-12-08T10:34:27.115Z,20.14
2022-12-08T10:36:56.902Z,20.15
2022-12-08T10:39:37.708Z,20.15
2022-12-08T10:42:09.535Z,20.14
2022-12-08T10:45:08.777Z,20.14
2022-12-08T10:47:42.492Z,20.14
2022-12-08T10:50:35.153Z,20.14
2022-12-08T10:53:02.078Z,20.14
2022-12-08T10:55:39.456Z,20.16
2022-12-08T10:58:06.501Z,20.17
2022-12-08T11:00:34.721Z,20.19
2022-12-08T11:03:05.683Z,20.21
2022-12-08T11:05:35.900Z,20.22
2022-12-08T11:08:05.080Z,20.24
2022-12-08T11:10:42.991Z,20.25
2022-12-08T11:13:26.414Z,20.28
2022-12-08T11:15:57.390Z,20.29
2022-12-08T11:18:45.028Z,20.30
2022-12-08T11:21:15.802Z,20.31
2022-12-08T11:23:47.945Z,20.31
2022-12-08T11:26:32.628Z,20.32
2022-12-08T11:28:59.717Z,20.33
2022-12-08T11:31:34.824Z,20.34
2022-12-08T11:34:03.423Z,20.34
2022-12-08T11:36:35.536Z,20.35
2022-12-08T11:39:07.783Z,20.35
2022-12-08T11:41:41.678Z,20.35
2022-12-08T11:44:08.564Z,20.33
2022-12-08T11:46:50.277Z,20.33
2022-12-08T11:49:18.293Z,20.33
2022-12-08T11:51:54.245Z,20.32
2022-12-08T11:54:31.128Z,20.32
2022-12-08T11:57:00.938Z,20.30
2022-12-08T11:59:39.741Z,20.30
2022-12-08T12:02:15.116Z,20.29
2022-12-08T12:04:45.979Z,20.29
2022-12-08T12:07:26.208Z,20.30
2022-12-08T12:10:03.737Z,20.29
2022-12-08T12:12:48.743Z,20.27
2022-12-08T12:15:58.590Z,20.27
2022-12-08T12:19:00.710Z,20.27
2022-12-08T12:21:31.723Z,20.27
2022-12-08T12:24:27.535Z,20.28
2022-12-08T12:27:16.420Z,20.28
2022-12-08T12:29:55.772Z,20.29
2022-12-08T12:32:24.938Z,20.30
2022-12-08T12:35:00.400Z,20.29
2022-12-08T12:37:42.928Z,20.31
2022-12-08T12:40:22.719Z,20.31
2022-12-08T12:42:55.776Z,20.32
2022-12-08T12:45:27.777Z,20.33
2022-12-08T12:48:00.593Z,20.34
2022-12-08T12:50:33.889Z,20.35
2022-12-08T12:53:10.596Z,20.36
2022-12-08T12:55:56.344Z,20.36
2022-12-08T12:58:30.033Z,20.36
2022-12-08T13:01:15.434Z,20.36
2022-12-08T13:03:50.053Z,20.36
2022-12-08T13:06:33.871Z,20.38
2022-12-08T13:09:01.107Z,20.38
2022-12-08T13:11:28.287Z,20.40
2022-12-08T13:14:01.640Z,20.41
2022-12-08T13:16:33.548Z,20.43
2022-12-08T13:19:04.320Z,20.44
2022-12-08T13:21:37.964Z,20.45
2022-12-08T13:24:13.733Z,20.47
2022-12-08T13:27:10.963Z,20.48
2022-12-08T13:29:39.279Z,20.49
2022-12-08T13:32:09.901Z,20.50
2022-12-08T13:34:46.070Z,20.50
2022-12-08T13:37:16.324Z,20.51
2022-12-08T13:39:59.198Z,20.50
2022-12-08T13:42:50.617Z,20.49
2022-12-08T13:46:31.904Z,20.46
2022-12-08T13:49:09.603Z,20.45
2022-12-08T13:57:12.189Z,20.45
2022-12-08T13:59:44.894Z,20.46
2022-12-08T14:02:29.009Z,20.45
2022-12-08T14:07:45.087Z,20.40
2022-12-08T14:10:32.347Z,20.38
2022-12-08T14:13:07.012Z,20.36
2022-12-08T14:15:38.429Z,20.36
2022-12-08T14:18:07.195Z,20.34
2022-12-08T14:20:57.659Z,20.34
2022-12-08T14:23:22.652Z,20.33
2022-12-08T14:25:49.854Z,20.34
2022-12-08T14:28:17.042Z,20.35
2022-12-08T14:30:44.483Z,20.34
2022-12-08T14:33:17.028Z,20.32
2022-12-08T14:35:51.586Z,20.31
2022-12-08T14:38:20.972Z,20.30
2022-12-08T14:40:50.191Z,20.31
2022-12-08T14:43:26.344Z,20.31
2022-12-08T14:46:20.857Z,20.31
2022-12-08T14:48:48.123Z,20.33
2022-12-08T14:51:21.476Z,20.34
2022-12-08T14:54:12.306Z,20.34
2022-12-08T14:56:52.328Z,20.35
2022-12-08T14:59:35.440Z,20.36
2022-12-08T15:02:14.606Z,20.37
2022-12-08T15:04:47.808Z,20.38
2022-12-08T15:07:16.305Z,20.39
2022-12-08T15:09:50.325Z,20.40
2022-12-08T15:12:27.165Z,20.40
2022-12-08T15:15:22.477Z,20.41
2022-12-08T15:17:51.941Z,20.42
2022-12-08T15:20:41.003Z,20.42
2022-12-08T15:23:21.506Z,20.43
2022-12-08T15:25:49.411Z,20.42
2022-12-08T15:28:21.264Z,20.42
2022-12-08T15:30:51.065Z,20.42
2022-12-08T15:33:18.229Z,20.43
2022-12-08T15:35:45.441Z,20.44
2022-12-08T15:38:27.246Z,20.43
2022-12-08T15:40:55.568Z,20.44
2022-12-08T15:43:22.856Z,20.43
2022-12-08T15:45:59.172Z,20.43
2022-12-08T15:48:29.072Z,20.43
2022-12-08T15:50:56.843Z,20.43
2022-12-08T15:53:23.895Z,20.42
2022-12-08T15:56:19.078Z,20.43
2022-12-08T15:58:53.606Z,20.43
2022-12-08T16:01:22.068Z,20.43
2022-12-08T16:09:39.606Z,20.41
2022-12-08T16:13:06.958Z,20.40
2022-12-08T16:15:50.154Z,20.39
2022-12-08T16:18:14.122Z,20.40
2022-12-08T16:21:07.482Z,20.40
2022-12-08T16:23:42.217Z,20.40
2022-12-08T16:29:16.703Z,20.42
2022-12-08T16:31:43.704Z,20.42
2022-12-08T16:34:10.971Z,20.43
2022-12-08T16:36:39.194Z,20.44
2022-12-08T16:39:06.618Z,20.43
2022-12-08T16:41:52.278Z,20.42
2022-12-08T16:44:20.037Z,20.41
2022-12-08T16:46:51.888Z,20.40
2022-12-08T16:49:22.413Z,20.39
2022-12-08T16:51:49.327Z,20.37
2022-12-08T16:54:16.316Z,20.37
2022-12-08T16:56:43.217Z,20.37
2022-12-08T16:59:10.315Z,20.37
2022-12-08T17:01:37.513Z,20.35
2022-12-08T17:06:54.107Z,20.32
2022-12-08T17:09:21.161Z,20.31
2022-12-08T17:11:48.152Z,20.28
2022-12-08T17:14:15.639Z,20.27
2022-12-08T17:16:43.478Z,20.25
2022-12-08T17:19:13.563Z,20.24
2022-12-08T17:21:40.643Z,20.24
2022-12-08T17:24:07.895Z,20.25
2022-12-08T17:26:35.566Z,20.26
2022-12-08T17:29:04.071Z,20.28
2022-12-08T17:31:32.760Z,20.30
2022-12-08T17:34:02.112Z,20.31
2022-12-08T17:36:29.353Z,20.34
2022-12-08T17:38:58.625Z,20.35
2022-12-08T17:41:25.565Z,20.38
2022-12-08T17:43:52.511Z,20.40
2022-12-08T17:46:21.110Z,20.41
2022-12-08T17:48:48.208Z,20.43
2022-12-08T17:51:15.506Z,20.43
2022-12-08T17:53:43.039Z,20.44
2022-12-08T17:56:20.231Z,20.46
2022-12-08T17:58:54.051Z,20.45
2022-12-08T18:01:22.466Z,20.46
2022-12-08T18:03:49.920Z,20.47
2022-12-08T18:06:17.906Z,20.47
2022-12-08T18:08:45.525Z,20.48
2022-12-08T18:11:21.001Z,20.49
2022-12-08T18:13:51.627Z,20.51
2022-12-08T18:16:21.103Z,20.51
2022-12-08T18:18:48.548Z,20.51
2022-12-08T18:21:21.558Z,20.50
2022-12-08T18:23:50.840Z,20.49
2022-12-08T18:26:18.022Z,20.49
2022-12-08T18:28:45.043Z,20.48
2022-12-08T18:31:15.297Z,20.48
2022-12-08T18:33:44.471Z,20.47
2022-12-08T18:36:15.118Z,20.46
2022-12-08T18:38:42.438Z,20.45
2022-12-08T18:41:17.102Z,20.43
2022-12-08T18:43:44.312Z,20.43
2022-12-08T18:46:12.805Z,20.42
2022-12-08T18:48:42.587Z,20.42
2022-12-08T18:51:15.361Z,20.42
2022-12-08T18:53:42.894Z,20.43
2022-12-08T18:56:21.929Z,20.44
2022-12-08T18:58:49.017Z,20.44
2022-12-08T19:01:16.319Z,20.44
2022-12-08T19:03:58.499Z,20.44
2022-12-08T19:06:30.569Z,20.45
2022-12-08T19:08:57.980Z,20.46
2022-12-08T19:11:28.062Z,20.46
2022-12-08T19:13:55.848Z,20.46
2022-12-08T19:16:23.328Z,20.46
2022-12-08T19:18:50.501Z,20.46
2022-12-08T19:21:17.630Z,20.45
2022-12-08T19:23:44.736Z,20.46
2022-12-08T19:26:12.511Z,20.46
2022-12-08T19:28:41.204Z,20.47
2022-12-08T19:31:10.232Z,20.46
2022-12-08T19:33:38.392Z,20.47
2022-12-08T19:36:07.459Z,20.47
2022-12-08T19:38:54.426Z,20.48
2022-12-08T19:41:40.324Z,20.48
2022-12-08T19:44:29.588Z,20.48
2022-12-08T19:46:56.765Z,20.48
2022-12-08T19:49:23.878Z,20.48
2022-12-08T19:51:50.981Z,20.49
2022-12-08T19:54:19.539Z,20.49
2022-12-08T19:56:47.898Z,20.49
2022-12-08T19:59:16.633Z,20.50
2022-12-08T20:01:44.636Z,20.50
2022-12-08T20:04:15.497Z,20.49
2022-12-08T20:06:43.118Z,20.48
2022-12-08T20:09:10.664Z,20.48
2022-12-08T20:11:38.303Z,20.48
2022-12-08T20:14:05.812Z,20.48
2022-12-08T20:16:33.274Z,20.49
2022-12-08T20:19:00.499Z,20.49
2022-12-08T20:21:28.033Z,20.48
2022-12-08T20:23:55.093Z,20.48
2022-12-08T20:26:23.905Z,20.48
2022-12-08T20:28:51.597Z,20.47
2022-12-08T20:31:24.691Z,20.47
2022-12-08T20:33:52.481Z,20.46
2022-12-08T20:36:21.270Z,20.45
2022-12-08T20:38:50.324Z,20.44
2022-12-08T20:41:18.314Z,20.43
2022-12-08T20:43:47.169Z,20.41
2022-12-08T20:46:16.761Z,20.41
2022-12-08T20:48:44.944Z,20.41
2022-12-08T20:51:17.124Z,20.42
2022-12-08T20:53:44.405Z,20.42
2022-12-08T20:56:20.274Z,20.43
2022-12-08T20:58:48.370Z,20.43
2022-12-08T21:01:18.687Z,20.44
2022-12-08T21:03:46.996Z,20.43
2022-12-08T21:06:15.465Z,20.43
2022-12-08T21:08:43.075Z,20.44
2022-12-08T21:11:10.671Z,20.44
2022-12-08T21:13:39.076Z,20.45
2022-12-08T21:16:09.390Z,20.45
2022-12-08T21:18:39.677Z,20.46
2022-12-08T21:21:14.429Z,20.46
2022-12-08T21:23:42.730Z,20.47
2022-12-08T21:26:19.013Z,20.47
2022-12-08T21:28:46.658Z,20.47
2022-12-08T21:31:17.012Z,20.48
2022-12-08T21:33:45.196Z,20.48
2022-12-08T21:36:14.636Z,20.48
2022-12-08T21:38:42.973Z,20.48
2022-12-08T21:41:16.576Z,20.48
2022-12-08T21:43:43.766Z,20.48
2022-12-08T21:46:17.487Z,20.47
2022-12-08T21:48:44.962Z,20.45
2022-12-08T21:51:12.236Z,20.43
2022-12-08T21:53:39.309Z,20.41
2022-12-08T21:56:10.143Z,20.39
2022-12-08T21:58:39.857Z,20.36
2022-12-08T22:01:09.044Z,20.35
2022-12-08T22:03:38.333Z,20.36
2022-12-08T22:06:07.529Z,20.36
2022-12-08T22:08:34.867Z,20.37
2022-12-08T22:11:02.857Z,20.37
2022-12-08T22:13:30.337Z,20.39
2022-12-08T22:15:58.938Z,20.40
2022-12-08T22:18:26.294Z,20.39
2022-12-08T22:20:54.041Z,20.37
2022-12-08T22:23:22.104Z,20.36
2022-12-08T22:26:03.063Z,20.35
2022-12-08T22:28:35.472Z,20.33
2022-12-08T22:31:19.654Z,20.32
2022-12-08T22:33:48.887Z,20.30
2022-12-08T22:36:26.583Z,20.30
2022-12-08T22:38:55.273Z,20.29
2022-12-08T22:41:22.832Z,20.28
2022-12-08T22:43:50.904Z,20.28
2022-12-08T22:46:20.757Z,20.27
2022-12-08T22:48:48.688Z,20.26
2022-12-08T22:51:16.217Z,20.26
2022-12-08T22:53:45.022Z,20.24
2022-12-08T22:56:13.554Z,20.23
2022-12-08T22:58:41.900Z,20.23
2022-12-08T23:01:09.482Z,20.22
2022-12-08T23:03:36.498Z,20.22
2022-12-08T23:06:12.537Z,20.22
2022-12-08T23:08:40.687Z,20.21
2022-12-08T23:11:08.158Z,20.21
2022-12-08T23:13:35.244Z,20.21
2022-12-08T23:16:02.456Z,20.21
2022-12-08T23:18:29.648Z,20.21
2022-12-08T23:20:56.678Z,20.21
2022-12-08T23:23:23.912Z,20.21
2022-12-08T23:25:50.949Z,20.22
2022-12-08T23:28:18.146Z,20.20
2022-12-08T23:30:45.687Z,20.20
2022-12-08T23:33:13.361Z,20.19
2022-12-08T23:35:40.521Z,20.19
2022-12-08T23:38:07.614Z,20.19
2022-12-08T23:40:34.703Z,20.20
2022-12-08T23:43:01.747Z,20.22
2022-12-08T23:45:29.005Z,20.24
2022-12-08T23:47:56.142Z,20.26
2022-12-08T23:50:23.103Z,20.27
2022-12-08T23:52:50.055Z,20.29
2022-12-08T23:55:17.073Z,20.31
2022-12-08T23:57:44.194Z,20.33
